sensor_id;sensor_type;location;lat;lon;timestamp;P1;durP1;ratioP1;P2;durP2;ratioP2
77938;SDS011;67136;47.546;21.630;2023-12-20T00:02:20;53.63;;;19.55;;
77938;SDS011;67136;47.546;21.630;2023-12-20T00:05:26;60.40;;;21.17;;
77938;SDS011;67136;47.546;21.630;2023-12-20T00:08:29;56.85;;;20.85;;
77938;SDS011;67136;47.546;21.630;2023-12-20T00:11:32;49.65;;;20.10;;
77938;SDS011;67136;47.546;21.630;2023-12-20T00:14:34;63.10;;;21.13;;
77938;SDS011;67136;47.546;21.630;2023-12-20T00:17:37;70.70;;;23.15;;
77938;SDS011;67136;47.546;21.630;2023-12-20T00:20:40;68.78;;;22.70;;
77938;SDS011;67136;47.546;21.630;2023-12-20T00:23:43;69.95;;;23.95;;
77938;SDS011;67136;47.546;21.630;2023-12-20T00:26:45;60.30;;;23.45;;
77938;SDS011;67136;47.546;21.630;2023-12-20T00:29:48;58.95;;;24.80;;
77938;SDS011;67136;47.546;21.630;2023-12-20T00:32:52;81.20;;;28.08;;
77938;SDS011;67136;47.546;21.630;2023-12-20T00:35:54;69.37;;;27.37;;
77938;SDS011;67136;47.546;21.630;2023-12-20T00:38:57;83.05;;;29.05;;
77938;SDS011;67136;47.546;21.630;2023-12-20T00:41:59;79.55;;;28.00;;
77938;SDS011;67136;47.546;21.630;2023-12-20T00:45:02;79.10;;;29.70;;
77938;SDS011;67136;47.546;21.630;2023-12-20T00:48:07;77.62;;;29.02;;
77938;SDS011;67136;47.546;21.630;2023-12-20T00:51:09;91.80;;;30.45;;
77938;SDS011;67136;47.546;21.630;2023-12-20T00:54:12;83.22;;;29.90;;
77938;SDS011;67136;47.546;21.630;2023-12-20T00:57:15;84.05;;;28.10;;
77938;SDS011;67136;47.546;21.630;2023-12-20T01:00:19;78.53;;;30.23;;
77938;SDS011;67136;47.546;21.630;2023-12-20T01:03:23;84.07;;;29.73;;
77938;SDS011;67136;47.546;21.630;2023-12-20T01:06:28;71.13;;;27.70;;
77938;SDS011;67136;47.546;21.630;2023-12-20T01:09:31;85.43;;;30.95;;
77938;SDS011;67136;47.546;21.630;2023-12-20T01:12:35;85.32;;;31.48;;
77938;SDS011;67136;47.546;21.630;2023-12-20T01:15:39;87.17;;;31.77;;
77938;SDS011;67136;47.546;21.630;2023-12-20T01:18:42;86.95;;;32.08;;
77938;SDS011;67136;47.546;21.630;2023-12-20T01:21:44;82.72;;;31.42;;
77938;SDS011;67136;47.546;21.630;2023-12-20T01:24:47;82.95;;;30.70;;
77938;SDS011;67136;47.546;21.630;2023-12-20T01:27:51;77.55;;;27.98;;
77938;SDS011;67136;47.546;21.630;2023-12-20T01:30:55;80.45;;;31.05;;
77938;SDS011;67136;47.546;21.630;2023-12-20T01:33:58;80.05;;;29.37;;
77938;SDS011;67136;47.546;21.630;2023-12-20T01:37:01;85.23;;;32.57;;
77938;SDS011;67136;47.546;21.630;2023-12-20T01:40:05;88.90;;;31.40;;
77938;SDS011;67136;47.546;21.630;2023-12-20T01:43:08;94.13;;;32.50;;
77938;SDS011;67136;47.546;21.630;2023-12-20T01:46:11;93.20;;;32.33;;
77938;SDS011;67136;47.546;21.630;2023-12-20T01:49:14;94.45;;;32.60;;
77938;SDS011;67136;47.546;21.630;2023-12-20T01:52:18;90.78;;;33.78;;
77938;SDS011;67136;47.546;21.630;2023-12-20T01:55:22;83.90;;;31.30;;
77938;SDS011;67136;47.546;21.630;2023-12-20T01:58:25;82.73;;;31.97;;
77938;SDS011;67136;47.546;21.630;2023-12-20T02:01:28;87.15;;;31.37;;
77938;SDS011;67136;47.546;21.630;2023-12-20T02:04:32;78.15;;;30.25;;
77938;SDS011;67136;47.546;21.630;2023-12-20T02:07:34;77.00;;;29.13;;
77938;SDS011;67136;47.546;21.630;2023-12-20T02:10:37;86.57;;;31.00;;
77938;SDS011;67136;47.546;21.630;2023-12-20T02:13:40;80.68;;;31.23;;
77938;SDS011;67136;47.546;21.630;2023-12-20T02:16:43;86.05;;;30.42;;
77938;SDS011;67136;47.546;21.630;2023-12-20T02:19:47;89.13;;;30.60;;
77938;SDS011;67136;47.546;21.630;2023-12-20T02:22:50;85.45;;;31.87;;
77938;SDS011;67136;47.546;21.630;2023-12-20T02:25:53;76.20;;;29.83;;
77938;SDS011;67136;47.546;21.630;2023-12-20T02:28:56;79.17;;;29.63;;
77938;SDS011;67136;47.546;21.630;2023-12-20T02:31:59;76.55;;;28.52;;
77938;SDS011;67136;47.546;21.630;2023-12-20T02:35:01;85.05;;;32.47;;
77938;SDS011;67136;47.546;21.630;2023-12-20T02:38:04;89.83;;;30.70;;
77938;SDS011;67136;47.546;21.630;2023-12-20T02:41:07;65.93;;;28.08;;
77938;SDS011;67136;47.546;21.630;2023-12-20T02:44:10;81.28;;;29.23;;
77938;SDS011;67136;47.546;21.630;2023-12-20T02:47:13;81.95;;;29.10;;
77938;SDS011;67136;47.546;21.630;2023-12-20T02:50:16;72.28;;;28.45;;
77938;SDS011;67136;47.546;21.630;2023-12-20T02:53:19;77.75;;;29.33;;
77938;SDS011;67136;47.546;21.630;2023-12-20T02:56:22;88.93;;;30.40;;
77938;SDS011;67136;47.546;21.630;2023-12-20T02:59:24;85.93;;;30.70;;
77938;SDS011;67136;47.546;21.630;2023-12-20T03:02:27;85.12;;;30.20;;
77938;SDS011;67136;47.546;21.630;2023-12-20T03:05:29;88.00;;;30.48;;
77938;SDS011;67136;47.546;21.630;2023-12-20T03:08:32;84.93;;;30.17;;
77938;SDS011;67136;47.546;21.630;2023-12-20T03:11:35;85.82;;;28.20;;
77938;SDS011;67136;47.546;21.630;2023-12-20T03:14:38;93.60;;;30.55;;
77938;SDS011;67136;47.546;21.630;2023-12-20T03:17:40;82.25;;;28.77;;
77938;SDS011;67136;47.546;21.630;2023-12-20T03:20:44;84.40;;;28.93;;
77938;SDS011;67136;47.546;21.630;2023-12-20T03:23:47;89.72;;;30.15;;
77938;SDS011;67136;47.546;21.630;2023-12-20T03:26:50;86.53;;;31.00;;
77938;SDS011;67136;47.546;21.630;2023-12-20T03:29:52;87.93;;;28.27;;
77938;SDS011;67136;47.546;21.630;2023-12-20T03:32:55;87.40;;;30.03;;
77938;SDS011;67136;47.546;21.630;2023-12-20T03:35:58;81.78;;;29.15;;
77938;SDS011;67136;47.546;21.630;2023-12-20T03:39:01;83.72;;;28.05;;
77938;SDS011;67136;47.546;21.630;2023-12-20T03:42:05;83.70;;;27.17;;
77938;SDS011;67136;47.546;21.630;2023-12-20T03:45:08;73.57;;;27.43;;
77938;SDS011;67136;47.546;21.630;2023-12-20T03:48:11;75.20;;;26.80;;
77938;SDS011;67136;47.546;21.630;2023-12-20T03:51:14;80.78;;;27.90;;
77938;SDS011;67136;47.546;21.630;2023-12-20T03:54:17;72.72;;;25.58;;
77938;SDS011;67136;47.546;21.630;2023-12-20T03:57:20;83.73;;;28.40;;
77938;SDS011;67136;47.546;21.630;2023-12-20T04:00:22;65.68;;;26.33;;
77938;SDS011;67136;47.546;21.630;2023-12-20T04:03:25;70.55;;;27.00;;
77938;SDS011;67136;47.546;21.630;2023-12-20T04:06:28;74.68;;;28.05;;
77938;SDS011;67136;47.546;21.630;2023-12-20T04:09:31;65.22;;;24.90;;
77938;SDS011;67136;47.546;21.630;2023-12-20T04:12:33;63.25;;;24.40;;
77938;SDS011;67136;47.546;21.630;2023-12-20T04:15:36;93.30;;;26.87;;
77938;SDS011;67136;47.546;21.630;2023-12-20T04:18:38;81.30;;;26.53;;
77938;SDS011;67136;47.546;21.630;2023-12-20T04:21:41;78.68;;;26.20;;
77938;SDS011;67136;47.546;21.630;2023-12-20T04:24:44;75.50;;;26.08;;
77938;SDS011;67136;47.546;21.630;2023-12-20T04:27:47;66.10;;;24.87;;
77938;SDS011;67136;47.546;21.630;2023-12-20T04:30:50;61.30;;;23.67;;
77938;SDS011;67136;47.546;21.630;2023-12-20T04:33:52;66.07;;;23.90;;
77938;SDS011;67136;47.546;21.630;2023-12-20T04:36:55;58.72;;;23.70;;
77938;SDS011;67136;47.546;21.630;2023-12-20T04:39:58;66.53;;;23.23;;
77938;SDS011;67136;47.546;21.630;2023-12-20T04:43:01;61.67;;;22.95;;
77938;SDS011;67136;47.546;21.630;2023-12-20T04:46:04;64.03;;;22.83;;
77938;SDS011;67136;47.546;21.630;2023-12-20T04:49:07;65.53;;;24.75;;
77938;SDS011;67136;47.546;21.630;2023-12-20T04:52:10;56.72;;;22.25;;
77938;SDS011;67136;47.546;21.630;2023-12-20T04:55:13;55.33;;;21.87;;
77938;SDS011;67136;47.546;21.630;2023-12-20T04:58:16;51.92;;;20.42;;
77938;SDS011;67136;47.546;21.630;2023-12-20T05:01:19;53.73;;;22.17;;
77938;SDS011;67136;47.546;21.630;2023-12-20T05:04:23;49.70;;;20.55;;
77938;SDS011;67136;47.546;21.630;2023-12-20T05:07:26;55.95;;;21.52;;
77938;SDS011;67136;47.546;21.630;2023-12-20T05:10:29;54.07;;;21.43;;
77938;SDS011;67136;47.546;21.630;2023-12-20T05:13:32;56.37;;;22.10;;
77938;SDS011;67136;47.546;21.630;2023-12-20T05:16:46;51.88;;;20.95;;
77938;SDS011;67136;47.546;21.630;2023-12-20T05:19:48;52.95;;;20.58;;
77938;SDS011;67136;47.546;21.630;2023-12-20T05:22:51;49.33;;;20.80;;
77938;SDS011;67136;47.546;21.630;2023-12-20T05:25:54;53.22;;;22.85;;
77938;SDS011;67136;47.546;21.630;2023-12-20T05:28:57;55.40;;;21.55;;
77938;SDS011;67136;47.546;21.630;2023-12-20T05:32:00;54.73;;;21.27;;
77938;SDS011;67136;47.546;21.630;2023-12-20T05:35:03;48.55;;;21.30;;
77938;SDS011;67136;47.546;21.630;2023-12-20T05:38:06;60.17;;;22.13;;
77938;SDS011;67136;47.546;21.630;2023-12-20T05:41:09;50.10;;;20.67;;
77938;SDS011;67136;47.546;21.630;2023-12-20T05:44:11;56.13;;;22.70;;
77938;SDS011;67136;47.546;21.630;2023-12-20T05:47:14;51.17;;;21.98;;
77938;SDS011;67136;47.546;21.630;2023-12-20T05:50:16;58.47;;;22.02;;
77938;SDS011;67136;47.546;21.630;2023-12-20T05:53:19;55.50;;;22.27;;
77938;SDS011;67136;47.546;21.630;2023-12-20T05:56:21;51.33;;;20.75;;
77938;SDS011;67136;47.546;21.630;2023-12-20T05:59:24;54.58;;;21.17;;
77938;SDS011;67136;47.546;21.630;2023-12-20T06:02:26;56.13;;;22.23;;
77938;SDS011;67136;47.546;21.630;2023-12-20T06:05:29;56.10;;;20.98;;
77938;SDS011;67136;47.546;21.630;2023-12-20T06:08:32;57.00;;;21.87;;
77938;SDS011;67136;47.546;21.630;2023-12-20T06:11:34;57.17;;;22.43;;
77938;SDS011;67136;47.546;21.630;2023-12-20T06:14:37;58.13;;;22.77;;
77938;SDS011;67136;47.546;21.630;2023-12-20T06:17:39;55.42;;;22.90;;
77938;SDS011;67136;47.546;21.630;2023-12-20T06:20:42;57.40;;;23.35;;
77938;SDS011;67136;47.546;21.630;2023-12-20T06:23:45;57.80;;;22.83;;
77938;SDS011;67136;47.546;21.630;2023-12-20T06:26:48;61.08;;;22.60;;
77938;SDS011;67136;47.546;21.630;2023-12-20T06:29:51;58.13;;;21.87;;
77938;SDS011;67136;47.546;21.630;2023-12-20T06:32:54;58.33;;;23.27;;
77938;SDS011;67136;47.546;21.630;2023-12-20T06:35:57;56.20;;;23.00;;
77938;SDS011;67136;47.546;21.630;2023-12-20T06:39:00;50.58;;;22.58;;
77938;SDS011;67136;47.546;21.630;2023-12-20T06:42:03;54.33;;;20.13;;
77938;SDS011;67136;47.546;21.630;2023-12-20T06:45:06;62.78;;;23.48;;
77938;SDS011;67136;47.546;21.630;2023-12-20T06:48:11;54.28;;;21.27;;
77938;SDS011;67136;47.546;21.630;2023-12-20T06:51:16;56.22;;;22.77;;
77938;SDS011;67136;47.546;21.630;2023-12-20T06:54:20;48.95;;;20.75;;
77938;SDS011;67136;47.546;21.630;2023-12-20T06:57:23;53.58;;;23.40;;
77938;SDS011;67136;47.546;21.630;2023-12-20T07:00:28;59.28;;;22.10;;
77938;SDS011;67136;47.546;21.630;2023-12-20T07:03:31;63.67;;;25.00;;
77938;SDS011;67136;47.546;21.630;2023-12-20T07:06:34;66.62;;;24.25;;
77938;SDS011;67136;47.546;21.630;2023-12-20T07:09:37;55.88;;;22.55;;
77938;SDS011;67136;47.546;21.630;2023-12-20T07:12:41;59.93;;;23.77;;
77938;SDS011;67136;47.546;21.630;2023-12-20T07:15:44;62.20;;;23.65;;
77938;SDS011;67136;47.546;21.630;2023-12-20T07:18:47;63.08;;;22.33;;
77938;SDS011;67136;47.546;21.630;2023-12-20T07:21:52;61.70;;;21.87;;
77938;SDS011;67136;47.546;21.630;2023-12-20T07:24:56;62.97;;;24.40;;
77938;SDS011;67136;47.546;21.630;2023-12-20T07:27:58;58.80;;;21.45;;
77938;SDS011;67136;47.546;21.630;2023-12-20T07:31:01;50.10;;;22.13;;
77938;SDS011;67136;47.546;21.630;2023-12-20T07:34:04;60.47;;;24.25;;
77938;SDS011;67136;47.546;21.630;2023-12-20T07:37:08;55.20;;;22.73;;
77938;SDS011;67136;47.546;21.630;2023-12-20T07:40:12;59.63;;;23.23;;
77938;SDS011;67136;47.546;21.630;2023-12-20T07:43:15;52.92;;;21.52;;
77938;SDS011;67136;47.546;21.630;2023-12-20T07:46:19;54.47;;;22.73;;
77938;SDS011;67136;47.546;21.630;2023-12-20T07:49:26;65.53;;;25.27;;
77938;SDS011;67136;47.546;21.630;2023-12-20T07:52:29;52.03;;;22.17;;
77938;SDS011;67136;47.546;21.630;2023-12-20T07:55:32;56.97;;;23.40;;
77938;SDS011;67136;47.546;21.630;2023-12-20T07:58:35;54.85;;;23.27;;
77938;SDS011;67136;47.546;21.630;2023-12-20T08:01:56;54.28;;;23.45;;
77938;SDS011;67136;47.546;21.630;2023-12-20T08:05:02;54.13;;;24.27;;
77938;SDS011;67136;47.546;21.630;2023-12-20T08:08:08;50.30;;;23.17;;
77938;SDS011;67136;47.546;21.630;2023-12-20T08:11:12;52.58;;;24.23;;
77938;SDS011;67136;47.546;21.630;2023-12-20T08:14:15;53.87;;;23.23;;
77938;SDS011;67136;47.546;21.630;2023-12-20T08:17:18;47.83;;;23.05;;
77938;SDS011;67136;47.546;21.630;2023-12-20T08:20:21;45.07;;;22.93;;
77938;SDS011;67136;47.546;21.630;2023-12-20T08:23:34;47.03;;;22.13;;
77938;SDS011;67136;47.546;21.630;2023-12-20T08:26:37;45.80;;;21.62;;
77938;SDS011;67136;47.546;21.630;2023-12-20T08:29:41;38.35;;;19.92;;
77938;SDS011;67136;47.546;21.630;2023-12-20T08:32:47;41.80;;;20.60;;
77938;SDS011;67136;47.546;21.630;2023-12-20T08:35:51;43.00;;;21.40;;
77938;SDS011;67136;47.546;21.630;2023-12-20T08:38:54;43.60;;;21.37;;
77938;SDS011;67136;47.546;21.630;2023-12-20T08:41:58;42.88;;;21.90;;
77938;SDS011;67136;47.546;21.630;2023-12-20T08:45:01;46.42;;;23.05;;
77938;SDS011;67136;47.546;21.630;2023-12-20T08:48:07;43.97;;;22.37;;
77938;SDS011;67136;47.546;21.630;2023-12-20T08:51:12;43.10;;;22.30;;
77938;SDS011;67136;47.546;21.630;2023-12-20T08:54:16;47.40;;;22.77;;
77938;SDS011;67136;47.546;21.630;2023-12-20T08:57:19;52.10;;;23.45;;
77938;SDS011;67136;47.546;21.630;2023-12-20T09:00:24;48.25;;;23.27;;
77938;SDS011;67136;47.546;21.630;2023-12-20T09:03:30;44.40;;;22.60;;
77938;SDS011;67136;47.546;21.630;2023-12-20T09:06:33;46.67;;;21.47;;
77938;SDS011;67136;47.546;21.630;2023-12-20T09:09:36;45.33;;;21.63;;
77938;SDS011;67136;47.546;21.630;2023-12-20T09:12:39;41.63;;;20.58;;
77938;SDS011;67136;47.546;21.630;2023-12-20T09:15:43;46.35;;;21.23;;
77938;SDS011;67136;47.546;21.630;2023-12-20T09:18:46;40.25;;;20.25;;
77938;SDS011;67136;47.546;21.630;2023-12-20T09:21:49;39.33;;;20.10;;
77938;SDS011;67136;47.546;21.630;2023-12-20T09:24:52;36.33;;;19.17;;
77938;SDS011;67136;47.546;21.630;2023-12-20T09:27:55;43.63;;;20.83;;
77938;SDS011;67136;47.546;21.630;2023-12-20T09:30:58;40.63;;;20.23;;
77938;SDS011;67136;47.546;21.630;2023-12-20T09:34:01;41.37;;;21.15;;
77938;SDS011;67136;47.546;21.630;2023-12-20T09:37:05;37.67;;;20.37;;
77938;SDS011;67136;47.546;21.630;2023-12-20T09:40:09;41.23;;;21.63;;
77938;SDS011;67136;47.546;21.630;2023-12-20T09:43:15;41.33;;;21.12;;
77938;SDS011;67136;47.546;21.630;2023-12-20T09:46:22;37.10;;;20.25;;
77938;SDS011;67136;47.546;21.630;2023-12-20T09:49:29;36.53;;;20.33;;
77938;SDS011;67136;47.546;21.630;2023-12-20T09:52:32;38.53;;;21.53;;
77938;SDS011;67136;47.546;21.630;2023-12-20T09:55:38;49.37;;;25.27;;
77938;SDS011;67136;47.546;21.630;2023-12-20T09:58:43;52.53;;;27.45;;
77938;SDS011;67136;47.546;21.630;2023-12-20T10:01:46;53.28;;;26.25;;
77938;SDS011;67136;47.546;21.630;2023-12-20T10:04:49;56.58;;;27.95;;
77938;SDS011;67136;47.546;21.630;2023-12-20T10:07:52;56.27;;;28.60;;
77938;SDS011;67136;47.546;21.630;2023-12-20T10:10:55;59.90;;;26.67;;
77938;SDS011;67136;47.546;21.630;2023-12-20T10:14:00;55.75;;;28.17;;
77938;SDS011;67136;47.546;21.630;2023-12-20T10:17:06;61.53;;;27.52;;
77938;SDS011;67136;47.546;21.630;2023-12-20T10:20:09;59.20;;;27.08;;
77938;SDS011;67136;47.546;21.630;2023-12-20T10:23:12;59.73;;;27.70;;
77938;SDS011;67136;47.546;21.630;2023-12-20T10:26:21;58.70;;;26.60;;
77938;SDS011;67136;47.546;21.630;2023-12-20T10:29:25;59.38;;;26.75;;
77938;SDS011;67136;47.546;21.630;2023-12-20T10:32:28;57.88;;;25.52;;
77938;SDS011;67136;47.546;21.630;2023-12-20T10:35:31;58.17;;;26.08;;
77938;SDS011;67136;47.546;21.630;2023-12-20T10:38:34;58.83;;;26.00;;
77938;SDS011;67136;47.546;21.630;2023-12-20T10:41:40;59.37;;;25.20;;
77938;SDS011;67136;47.546;21.630;2023-12-20T10:44:44;66.75;;;25.65;;
77938;SDS011;67136;47.546;21.630;2023-12-20T10:47:49;58.50;;;25.12;;
77938;SDS011;67136;47.546;21.630;2023-12-20T10:50:53;56.97;;;26.05;;
77938;SDS011;67136;47.546;21.630;2023-12-20T10:53:58;56.77;;;25.10;;
77938;SDS011;67136;47.546;21.630;2023-12-20T10:57:01;56.67;;;24.83;;
77938;SDS011;67136;47.546;21.630;2023-12-20T11:00:08;52.08;;;23.40;;
77938;SDS011;67136;47.546;21.630;2023-12-20T11:03:16;54.03;;;24.52;;
77938;SDS011;67136;47.546;21.630;2023-12-20T11:09:43;50.93;;;23.67;;
77938;SDS011;67136;47.546;21.630;2023-12-20T11:13:06;48.77;;;22.33;;
77938;SDS011;67136;47.546;21.630;2023-12-20T11:16:19;48.05;;;23.83;;
77938;SDS011;67136;47.546;21.630;2023-12-20T11:19:25;51.30;;;23.38;;
77938;SDS011;67136;47.546;21.630;2023-12-20T11:22:30;47.75;;;22.75;;
77938;SDS011;67136;47.546;21.630;2023-12-20T11:25:48;46.23;;;23.83;;
77938;SDS011;67136;47.546;21.630;2023-12-20T11:28:51;45.13;;;24.57;;
77938;SDS011;67136;47.546;21.630;2023-12-20T11:31:54;45.92;;;22.87;;
77938;SDS011;67136;47.546;21.630;2023-12-20T11:38:15;47.62;;;24.60;;
77938;SDS011;67136;47.546;21.630;2023-12-20T11:41:18;44.77;;;22.57;;
77938;SDS011;67136;47.546;21.630;2023-12-20T11:44:20;43.67;;;25.43;;
77938;SDS011;67136;47.546;21.630;2023-12-20T11:47:23;41.37;;;23.02;;
77938;SDS011;67136;47.546;21.630;2023-12-20T11:50:26;41.88;;;23.80;;
77938;SDS011;67136;47.546;21.630;2023-12-20T11:53:30;45.40;;;25.65;;
77938;SDS011;67136;47.546;21.630;2023-12-20T11:56:36;40.90;;;23.07;;
77938;SDS011;67136;47.546;21.630;2023-12-20T11:59:39;42.13;;;23.80;;
77938;SDS011;67136;47.546;21.630;2023-12-20T12:02:41;41.08;;;23.98;;
77938;SDS011;67136;47.546;21.630;2023-12-20T12:05:47;39.53;;;23.08;;
77938;SDS011;67136;47.546;21.630;2023-12-20T12:08:50;38.75;;;22.48;;
77938;SDS011;67136;47.546;21.630;2023-12-20T12:11:54;39.97;;;22.93;;
77938;SDS011;67136;47.546;21.630;2023-12-20T12:14:57;43.67;;;23.53;;
77938;SDS011;67136;47.546;21.630;2023-12-20T12:18:00;44.05;;;24.55;;
77938;SDS011;67136;47.546;21.630;2023-12-20T12:21:03;37.78;;;20.25;;
77938;SDS011;67136;47.546;21.630;2023-12-20T12:24:14;36.28;;;18.05;;
77938;SDS011;67136;47.546;21.630;2023-12-20T12:27:17;34.40;;;17.33;;
77938;SDS011;67136;47.546;21.630;2023-12-20T12:30:20;35.03;;;16.63;;
77938;SDS011;67136;47.546;21.630;2023-12-20T12:33:24;37.00;;;16.90;;
77938;SDS011;67136;47.546;21.630;2023-12-20T12:36:29;42.42;;;17.45;;
77938;SDS011;67136;47.546;21.630;2023-12-20T12:39:32;42.17;;;17.30;;
77938;SDS011;67136;47.546;21.630;2023-12-20T12:42:35;37.33;;;17.37;;
77938;SDS011;67136;47.546;21.630;2023-12-20T12:45:37;40.03;;;16.50;;
77938;SDS011;67136;47.546;21.630;2023-12-20T12:48:41;36.00;;;16.70;;
77938;SDS011;67136;47.546;21.630;2023-12-20T12:51:47;40.20;;;16.05;;
77938;SDS011;67136;47.546;21.630;2023-12-20T12:54:50;41.95;;;16.90;;
77938;SDS011;67136;47.546;21.630;2023-12-20T12:57:53;44.00;;;17.83;;
77938;SDS011;67136;47.546;21.630;2023-12-20T13:00:57;43.60;;;18.37;;
77938;SDS011;67136;47.546;21.630;2023-12-20T13:03:59;43.83;;;18.33;;
77938;SDS011;67136;47.546;21.630;2023-12-20T13:07:05;41.58;;;17.23;;
77938;SDS011;67136;47.546;21.630;2023-12-20T13:10:08;42.78;;;16.55;;
77938;SDS011;67136;47.546;21.630;2023-12-20T13:13:11;38.67;;;16.57;;
77938;SDS011;67136;47.546;21.630;2023-12-20T13:16:17;40.45;;;16.52;;
77938;SDS011;67136;47.546;21.630;2023-12-20T13:19:19;43.83;;;17.33;;
77938;SDS011;67136;47.546;21.630;2023-12-20T13:22:23;40.08;;;15.60;;
77938;SDS011;67136;47.546;21.630;2023-12-20T13:25:26;43.83;;;16.42;;
77938;SDS011;67136;47.546;21.630;2023-12-20T13:28:29;40.30;;;16.90;;
77938;SDS011;67136;47.546;21.630;2023-12-20T13:31:32;41.00;;;16.77;;
77938;SDS011;67136;47.546;21.630;2023-12-20T13:34:35;53.67;;;18.77;;
77938;SDS011;67136;47.546;21.630;2023-12-20T13:37:38;38.28;;;15.05;;
77938;SDS011;67136;47.546;21.630;2023-12-20T13:40:41;39.67;;;16.15;;
77938;SDS011;67136;47.546;21.630;2023-12-20T13:43:44;35.67;;;14.93;;
77938;SDS011;67136;47.546;21.630;2023-12-20T13:46:47;57.72;;;18.37;;
77938;SDS011;67136;47.546;21.630;2023-12-20T13:49:52;57.33;;;17.62;;
77938;SDS011;67136;47.546;21.630;2023-12-20T13:52:55;46.60;;;16.12;;
77938;SDS011;67136;47.546;21.630;2023-12-20T13:55:58;49.03;;;18.02;;
77938;SDS011;67136;47.546;21.630;2023-12-20T13:59:02;86.68;;;22.73;;
77938;SDS011;67136;47.546;21.630;2023-12-20T14:02:05;56.42;;;16.73;;
77938;SDS011;67136;47.546;21.630;2023-12-20T14:05:08;48.97;;;17.83;;
77938;SDS011;67136;47.546;21.630;2023-12-20T14:08:11;48.13;;;16.20;;
77938;SDS011;67136;47.546;21.630;2023-12-20T14:11:14;53.70;;;16.60;;
77938;SDS011;67136;47.546;21.630;2023-12-20T14:14:18;48.25;;;15.32;;
77938;SDS011;67136;47.546;21.630;2023-12-20T14:17:21;42.28;;;14.35;;
77938;SDS011;67136;47.546;21.630;2023-12-20T14:20:24;37.78;;;14.77;;
77938;SDS011;67136;47.546;21.630;2023-12-20T14:23:27;52.13;;;14.77;;
77938;SDS011;67136;47.546;21.630;2023-12-20T14:26:30;41.42;;;15.63;;
77938;SDS011;67136;47.546;21.630;2023-12-20T14:29:34;36.28;;;13.95;;
77938;SDS011;67136;47.546;21.630;2023-12-20T14:32:37;42.38;;;14.98;;
77938;SDS011;67136;47.546;21.630;2023-12-20T14:35:40;51.92;;;16.67;;
77938;SDS011;67136;47.546;21.630;2023-12-20T14:38:47;57.70;;;16.70;;
77938;SDS011;67136;47.546;21.630;2023-12-20T14:41:50;72.75;;;19.92;;
77938;SDS011;67136;47.546;21.630;2023-12-20T14:44:52;54.22;;;16.67;;
77938;SDS011;67136;47.546;21.630;2023-12-20T14:47:56;58.38;;;17.35;;
77938;SDS011;67136;47.546;21.630;2023-12-20T14:51:00;53.53;;;17.10;;
77938;SDS011;67136;47.546;21.630;2023-12-20T14:54:03;57.78;;;16.70;;
77938;SDS011;67136;47.546;21.630;2023-12-20T14:57:06;46.85;;;14.82;;
77938;SDS011;67136;47.546;21.630;2023-12-20T15:00:10;45.38;;;15.57;;
77938;SDS011;67136;47.546;21.630;2023-12-20T15:03:18;42.33;;;13.73;;
77938;SDS011;67136;47.546;21.630;2023-12-20T15:06:21;38.95;;;14.10;;
77938;SDS011;67136;47.546;21.630;2023-12-20T15:09:24;42.53;;;14.00;;
77938;SDS011;67136;47.546;21.630;2023-12-20T15:12:26;39.92;;;12.98;;
77938;SDS011;67136;47.546;21.630;2023-12-20T15:15:29;48.23;;;13.70;;
77938;SDS011;67136;47.546;21.630;2023-12-20T15:18:32;38.15;;;13.55;;
77938;SDS011;67136;47.546;21.630;2023-12-20T15:21:35;45.53;;;14.30;;
77938;SDS011;67136;47.546;21.630;2023-12-20T15:24:46;43.30;;;13.80;;
77938;SDS011;67136;47.546;21.630;2023-12-20T15:27:49;38.80;;;13.07;;
77938;SDS011;67136;47.546;21.630;2023-12-20T15:30:56;43.33;;;12.57;;
77938;SDS011;67136;47.546;21.630;2023-12-20T15:33:59;35.42;;;13.77;;
77938;SDS011;67136;47.546;21.630;2023-12-20T15:37:02;35.75;;;11.80;;
77938;SDS011;67136;47.546;21.630;2023-12-20T15:40:07;38.67;;;13.40;;
77938;SDS011;67136;47.546;21.630;2023-12-20T15:43:12;36.17;;;12.60;;
77938;SDS011;67136;47.546;21.630;2023-12-20T15:46:15;31.23;;;11.50;;
77938;SDS011;67136;47.546;21.630;2023-12-20T15:49:18;34.72;;;12.52;;
77938;SDS011;67136;47.546;21.630;2023-12-20T15:52:21;37.08;;;12.35;;
77938;SDS011;67136;47.546;21.630;2023-12-20T15:55:24;39.97;;;13.35;;
77938;SDS011;67136;47.546;21.630;2023-12-20T15:58:27;34.88;;;11.68;;
77938;SDS011;67136;47.546;21.630;2023-12-20T16:01:30;34.67;;;12.88;;
77938;SDS011;67136;47.546;21.630;2023-12-20T16:04:33;41.42;;;12.75;;
77938;SDS011;67136;47.546;21.630;2023-12-20T16:07:36;31.27;;;11.75;;
77938;SDS011;67136;47.546;21.630;2023-12-20T16:10:39;27.67;;;10.67;;
77938;SDS011;67136;47.546;21.630;2023-12-20T16:13:42;32.58;;;10.60;;
77938;SDS011;67136;47.546;21.630;2023-12-20T16:16:45;31.83;;;11.05;;
77938;SDS011;67136;47.546;21.630;2023-12-20T16:19:48;32.55;;;11.15;;
77938;SDS011;67136;47.546;21.630;2023-12-20T16:22:51;35.78;;;12.57;;
77938;SDS011;67136;47.546;21.630;2023-12-20T16:25:54;36.30;;;12.85;;
77938;SDS011;67136;47.546;21.630;2023-12-20T16:28:56;36.35;;;11.93;;
77938;SDS011;67136;47.546;21.630;2023-12-20T16:31:59;34.60;;;11.05;;
77938;SDS011;67136;47.546;21.630;2023-12-20T16:35:02;39.78;;;12.50;;
77938;SDS011;67136;47.546;21.630;2023-12-20T16:38:05;41.60;;;12.33;;
77938;SDS011;67136;47.546;21.630;2023-12-20T16:41:08;44.20;;;13.40;;
77938;SDS011;67136;47.546;21.630;2023-12-20T16:44:11;42.15;;;13.23;;
77938;SDS011;67136;47.546;21.630;2023-12-20T16:47:13;44.67;;;13.85;;
77938;SDS011;67136;47.546;21.630;2023-12-20T16:50:16;39.95;;;12.85;;
77938;SDS011;67136;47.546;21.630;2023-12-20T16:53:20;42.67;;;13.90;;
77938;SDS011;67136;47.546;21.630;2023-12-20T16:56:22;43.10;;;14.10;;
77938;SDS011;67136;47.546;21.630;2023-12-20T16:59:25;41.70;;;12.73;;
77938;SDS011;67136;47.546;21.630;2023-12-20T17:02:28;39.15;;;11.70;;
77938;SDS011;67136;47.546;21.630;2023-12-20T17:05:31;38.27;;;13.23;;
77938;SDS011;67136;47.546;21.630;2023-12-20T17:08:33;44.97;;;13.27;;
77938;SDS011;67136;47.546;21.630;2023-12-20T17:11:37;39.83;;;13.55;;
77938;SDS011;67136;47.546;21.630;2023-12-20T17:14:40;35.00;;;11.82;;
77938;SDS011;67136;47.546;21.630;2023-12-20T17:17:42;34.50;;;11.48;;
77938;SDS011;67136;47.546;21.630;2023-12-20T17:20:48;35.63;;;11.80;;
77938;SDS011;67136;47.546;21.630;2023-12-20T17:23:50;35.10;;;11.98;;
77938;SDS011;67136;47.546;21.630;2023-12-20T17:26:53;28.20;;;10.02;;
77938;SDS011;67136;47.546;21.630;2023-12-20T17:29:55;33.97;;;10.93;;
77938;SDS011;67136;47.546;21.630;2023-12-20T17:32:58;37.50;;;12.23;;
77938;SDS011;67136;47.546;21.630;2023-12-20T17:36:00;37.07;;;11.20;;
77938;SDS011;67136;47.546;21.630;2023-12-20T17:39:05;42.15;;;11.60;;
77938;SDS011;67136;47.546;21.630;2023-12-20T17:42:07;35.35;;;11.07;;
77938;SDS011;67136;47.546;21.630;2023-12-20T17:45:12;29.02;;;10.38;;